createdAt,value
2022-11-10T00:02:39.345Z,10.79
2022-11-10T00:05:29.759Z,10.79
2022-11-10T00:08:15.509Z,10.73
2022-11-10T00:11:13.138Z,10.71
2022-11-10T00:14:49.762Z,10.76
2022-11-10T00:17:40.213Z,10.78
2022-11-10T00:20:26.239Z,10.81
2022-11-10T00:23:14.456Z,10.83
2022-11-10T00:26:02.903Z,10.84
2022-11-10T00:28:53.874Z,10.87
2022-11-10T00:31:45.632Z,10.95
2022-11-10T00:34:33.662Z,10.88
2022-11-10T00:37:29.003Z,10.89
2022-11-10T00:40:18.839Z,10.93
2022-11-10T00:43:07.160Z,10.93
2022-11-10T00:46:14.659Z,10.89
2022-11-10T00:49:03.673Z,10.85
2022-11-10T00:52:08.024Z,10.85
2022-11-10T00:55:01.791Z,10.85
2022-11-10T00:57:49.657Z,10.84
2022-11-10T01:00:51.001Z,10.80
2022-11-10T01:03:39.053Z,10.82
2022-11-10T01:06:33.227Z,10.83
2022-11-10T01:09:24.770Z,10.85
2022-11-10T01:12:17.093Z,10.85
2022-11-10T01:15:17.241Z,10.92
2022-11-10T01:18:06.912Z,10.92
2022-11-10T01:20:53.014Z,10.90
2022-11-10T01:23:38.885Z,10.94
2022-11-10T01:26:31.949Z,10.93
2022-11-10T01:29:24.508Z,10.94
2022-11-10T01:35:18.886Z,10.93
2022-11-10T01:38:11.925Z,10.92
2022-11-10T01:40:57.894Z,10.93
2022-11-10T01:43:46.639Z,10.93
2022-11-10T01:46:47.831Z,10.91
2022-11-10T01:49:36.794Z,10.93
2022-11-10T01:52:33.908Z,10.91
2022-11-10T01:55:27.802Z,10.91
2022-11-10T01:58:22.457Z,10.92
2022-11-10T02:01:09.004Z,10.90
2022-11-10T02:04:00.839Z,10.88
2022-11-10T02:06:50.843Z,10.89
2022-11-10T02:09:46.555Z,10.89
2022-11-10T02:12:47.616Z,10.87
2022-11-10T02:15:43.461Z,10.89
2022-11-10T02:18:29.733Z,10.88
2022-11-10T02:21:28.034Z,10.92
2022-11-10T02:24:21.659Z,10.92
2022-11-10T02:27:07.518Z,10.88
2022-11-10T02:30:06.274Z,10.91
2022-11-10T02:32:54.337Z,10.89
2022-11-10T02:36:22.190Z,10.86
2022-11-10T02:39:25.043Z,10.88
2022-11-10T02:42:13.117Z,10.88
2022-11-10T02:45:09.509Z,10.91
2022-11-10T02:47:58.682Z,10.93
2022-11-10T02:50:48.980Z,10.92
2022-11-10T02:54:00.934Z,10.86
2022-11-10T02:56:50.258Z,10.88
2022-11-10T02:59:39.825Z,10.89
2022-11-10T03:02:31.967Z,10.86
2022-11-10T03:05:29.007Z,10.87
2022-11-10T03:08:17.784Z,10.89
2022-11-10T03:11:18.684Z,10.92
2022-11-10T03:14:12.294Z,10.91
2022-11-10T03:17:28.401Z,10.86
2022-11-10T03:20:23.957Z,10.87
2022-11-10T03:24:02.060Z,10.81
2022-11-10T03:27:05.218Z,10.81
2022-11-10T03:30:12.822Z,10.84
2022-11-10T03:36:13.684Z,10.77
2022-11-10T03:39:16.942Z,10.80
2022-11-10T03:42:20.211Z,10.77
2022-11-10T03:48:53.309Z,10.81
2022-11-10T03:52:00.028Z,10.77
2022-11-10T03:55:02.961Z,10.71
2022-11-10T04:01:42.605Z,10.69
2022-11-10T04:04:59.459Z,10.64
2022-11-10T04:08:38.779Z,10.59
2022-11-10T04:11:55.311Z,10.58
2022-11-10T04:15:03.261Z,10.61
2022-11-10T04:17:52.231Z,10.62
2022-11-10T04:20:41.917Z,10.58
2022-11-10T04:23:31.634Z,10.62
2022-11-10T04:26:29.127Z,10.77
2022-11-10T04:29:23.243Z,10.66
2022-11-10T04:32:11.627Z,10.58
2022-11-10T04:34:56.994Z,10.50
2022-11-10T04:37:41.978Z,10.48
2022-11-10T04:40:26.890Z,10.38
2022-11-10T04:43:11.836Z,10.32
2022-11-10T04:45:57.635Z,10.29
2022-11-10T04:48:42.658Z,10.30
2022-11-10T04:51:32.022Z,10.29
2022-11-10T04:54:17.511Z,10.18
2022-11-10T04:57:02.979Z,10.19
2022-11-10T04:59:49.515Z,10.14
2022-11-10T05:02:39.438Z,10.06
2022-11-10T05:05:25.297Z,10.06
2022-11-10T05:08:10.571Z,10.01
2022-11-10T05:10:56.081Z,9.92
2022-11-10T05:13:41.145Z,9.83
2022-11-10T05:16:26.723Z,9.87
2022-11-10T05:19:11.758Z,9.79
2022-11-10T05:21:56.719Z,9.72
2022-11-10T05:24:41.682Z,9.70
2022-11-10T05:27:26.711Z,9.64
2022-11-10T05:30:12.563Z,9.65
2022-11-10T05:32:58.009Z,9.63
2022-11-10T05:35:44.254Z,9.60
2022-11-10T05:38:29.403Z,9.60
2022-11-10T05:41:14.506Z,9.51
2022-11-10T05:44:15.796Z,9.45
2022-11-10T05:47:04.220Z,9.48
2022-11-10T05:49:49.623Z,9.43
2022-11-10T05:52:35.032Z,9.44
2022-11-10T05:55:29.229Z,9.41
2022-11-10T05:58:14.617Z,9.38
2022-11-10T06:00:59.833Z,9.32
2022-11-10T06:03:45.193Z,9.33
2022-11-10T06:06:30.702Z,9.30
2022-11-10T06:09:16.179Z,9.25
2022-11-10T06:12:01.746Z,9.24
2022-11-10T06:14:46.715Z,9.24
2022-11-10T06:17:32.161Z,9.20
2022-11-10T06:20:17.778Z,9.26
2022-11-10T06:23:03.320Z,9.29
2022-11-10T06:25:51.867Z,9.30
2022-11-10T06:28:37.371Z,9.27
2022-11-10T06:31:24.467Z,9.22
2022-11-10T06:34:09.732Z,9.21
2022-11-10T06:36:57.616Z,9.22
2022-11-10T06:39:42.722Z,9.19
2022-11-10T06:42:28.321Z,9.16
2022-11-10T06:45:13.805Z,9.18
2022-11-10T06:48:03.367Z,9.10
2022-11-10T06:50:48.837Z,9.09
2022-11-10T06:53:37.228Z,9.06
2022-11-10T06:56:40.371Z,9.05
2022-11-10T06:59:39.085Z,9.05
2022-11-10T07:02:25.609Z,9.06
2022-11-10T07:05:10.872Z,9.11
2022-11-10T07:08:45.275Z,9.08
2022-11-10T07:18:19.877Z,9.24
2022-11-10T07:21:29.960Z,9.22
2022-11-10T07:24:52.030Z,9.27
2022-11-10T07:27:49.547Z,9.32
2022-11-10T07:30:35.437Z,9.30
2022-11-10T07:33:20.995Z,9.30
2022-11-10T07:36:07.447Z,9.33
2022-11-10T07:38:52.984Z,9.37
2022-11-10T07:41:38.062Z,9.33
2022-11-10T07:44:23.052Z,9.38
2022-11-10T07:47:08.081Z,9.39
2022-11-10T07:49:53.334Z,9.46
2022-11-10T07:52:38.909Z,9.44
2022-11-10T07:55:27.030Z,9.42
2022-11-10T07:58:13.886Z,9.41
2022-11-10T08:01:02.332Z,9.45
2022-11-10T08:03:47.552Z,9.50
2022-11-10T08:06:36.120Z,9.59
2022-11-10T08:09:22.011Z,9.60
2022-11-10T08:12:11.099Z,9.61
2022-11-10T08:15:05.384Z,9.68
2022-11-10T08:17:52.876Z,9.64
2022-11-10T08:20:44.540Z,9.74
2022-11-10T08:23:30.233Z,9.75
2022-11-10T08:26:17.914Z,9.76
2022-11-10T08:29:02.910Z,9.80
2022-11-10T08:32:05.043Z,9.87
2022-11-10T08:34:52.899Z,9.91
2022-11-10T08:37:41.040Z,9.95
2022-11-10T08:40:28.005Z,10.01
2022-11-10T08:43:14.138Z,10.08
2022-11-10T08:46:02.629Z,10.13
2022-11-10T08:48:50.364Z,10.17
2022-11-10T08:51:39.712Z,10.21
2022-11-10T08:54:27.915Z,10.25
2022-11-10T08:57:13.407Z,10.28
2022-11-10T09:00:02.620Z,10.34
2022-11-10T09:02:51.575Z,10.37
2022-11-10T09:05:36.990Z,10.35
2022-11-10T09:08:26.086Z,10.32
2022-11-10T09:11:11.483Z,10.33
2022-11-10T09:13:56.551Z,10.34
2022-11-10T09:16:41.499Z,10.39
2022-11-10T09:19:26.620Z,10.39
2022-11-10T09:22:12.484Z,10.39
2022-11-10T09:25:10.417Z,10.34
2022-11-10T09:28:09.289Z,10.39
2022-11-10T09:31:00.727Z,10.39
2022-11-10T09:34:04.314Z,10.41
2022-11-10T09:36:49.761Z,10.46
2022-11-10T09:39:35.289Z,10.45
2022-11-10T09:42:23.177Z,10.56
2022-11-10T09:45:36.419Z,10.60
2022-11-10T09:48:26.732Z,10.66
2022-11-10T09:51:14.216Z,10.79
2022-11-10T09:54:27.624Z,10.88
2022-11-10T09:57:14.807Z,10.96
2022-11-10T10:00:04.760Z,11.02
2022-11-10T10:02:51.416Z,11.05
2022-11-10T10:05:55.682Z,11.10
2022-11-10T10:08:44.322Z,11.10
2022-11-10T10:11:35.358Z,11.11
2022-11-10T10:14:20.455Z,11.08
2022-11-10T10:17:39.810Z,11.12
2022-11-10T10:20:26.574Z,11.17
2022-11-10T10:23:30.472Z,11.30
2022-11-10T10:26:29.674Z,11.33
2022-11-10T10:29:25.784Z,11.32
2022-11-10T10:32:11.714Z,11.39
2022-11-10T10:34:57.909Z,11.56
2022-11-10T10:37:48.051Z,11.68
2022-11-10T10:40:33.546Z,11.74
2022-11-10T10:43:18.576Z,11.66
2022-11-10T10:46:03.683Z,11.55
2022-11-10T10:48:53.838Z,11.55
2022-11-10T10:51:48.566Z,11.54
2022-11-10T10:54:35.160Z,11.58
2022-11-10T10:57:22.290Z,11.65
2022-11-10T11:00:22.505Z,11.74
2022-11-10T11:03:11.676Z,11.75
2022-11-10T11:06:00.490Z,11.95
2022-11-10T11:09:00.185Z,12.10
2022-11-10T11:11:46.188Z,12.03
2022-11-10T11:14:31.659Z,11.93
2022-11-10T11:17:21.402Z,11.88
2022-11-10T11:20:12.941Z,11.79
2022-11-10T11:23:01.072Z,11.76
2022-11-10T11:25:46.294Z,11.88
2022-11-10T11:28:41.452Z,11.90
2022-11-10T11:31:43.008Z,11.93
2022-11-10T11:34:28.943Z,12.10
2022-11-10T11:37:19.051Z,12.23
2022-11-10T11:40:15.227Z,12.24
2022-11-10T11:43:18.344Z,12.23
2022-11-10T11:46:07.148Z,12.24
2022-11-10T11:49:01.687Z,12.20
2022-11-10T11:51:55.728Z,12.16
2022-11-10T11:54:41.123Z,12.13
2022-11-10T11:57:35.710Z,12.11
2022-11-10T12:00:23.885Z,12.21
2022-11-10T12:03:28.227Z,12.18
2022-11-10T12:06:13.102Z,12.25
2022-11-10T12:08:58.325Z,12.31
2022-11-10T12:11:46.363Z,12.40
2022-11-10T12:14:34.461Z,12.42
2022-11-10T12:17:19.959Z,12.37
2022-11-10T12:20:26.608Z,12.30
2022-11-10T12:23:18.957Z,12.17
2022-11-10T12:26:04.088Z,12.14
2022-11-10T12:28:53.302Z,12.09
2022-11-10T12:31:38.677Z,12.11
2022-11-10T12:34:28.408Z,12.14
2022-11-10T12:37:16.561Z,12.17
2022-11-10T12:40:02.922Z,12.21
2022-11-10T12:42:53.042Z,12.22
2022-11-10T12:45:40.032Z,12.28
2022-11-10T12:48:25.154Z,12.47
2022-11-10T12:51:13.176Z,12.59
2022-11-10T12:53:58.454Z,12.55
2022-11-10T12:56:43.436Z,12.56
2022-11-10T12:59:29.468Z,12.55
2022-11-10T13:02:50.219Z,12.52
2022-11-10T13:05:38.533Z,12.46
2022-11-10T13:08:29.797Z,12.48
2022-11-10T13:11:15.223Z,12.55
2022-11-10T13:14:01.301Z,12.54
2022-11-10T13:16:49.667Z,12.51
2022-11-10T13:19:38.966Z,12.49
2022-11-10T13:22:37.362Z,12.47
2022-11-10T13:25:37.830Z,12.43
2022-11-10T13:28:42.305Z,12.43
2022-11-10T13:31:31.392Z,12.44
2022-11-10T13:34:20.021Z,12.46
2022-11-10T13:37:24.038Z,12.48
2022-11-10T13:40:15.693Z,12.48
2022-11-10T13:43:01.103Z,12.56
2022-11-10T13:45:46.271Z,12.57
2022-11-10T13:48:46.201Z,12.57
2022-11-10T13:51:32.999Z,12.56
2022-11-10T13:54:30.421Z,12.57
2022-11-10T13:57:15.533Z,12.59
2022-11-10T14:00:01.396Z,12.57
2022-11-10T14:02:54.123Z,12.55
2022-11-10T14:05:39.966Z,12.49
2022-11-10T14:08:25.443Z,12.56
2022-11-10T14:11:16.303Z,12.50
2022-11-10T14:18:23.260Z,12.46
2022-11-10T14:25:10.215Z,12.36
2022-11-10T14:28:01.304Z,12.35
2022-11-10T14:31:12.961Z,12.35
2022-11-10T14:34:01.301Z,12.28
2022-11-10T14:36:56.243Z,12.28
2022-11-10T14:39:41.507Z,12.24
2022-11-10T14:42:28.564Z,12.26
2022-11-10T14:45:31.750Z,12.24
2022-11-10T14:48:17.981Z,12.25
2022-11-10T14:51:14.050Z,12.27
2022-11-10T14:53:59.449Z,12.23
2022-11-10T14:56:44.470Z,12.18
2022-11-10T14:59:29.717Z,12.18
2022-11-10T15:02:15.508Z,12.13
2022-11-10T15:05:00.906Z,12.13
2022-11-10T15:07:46.498Z,12.14
2022-11-10T15:10:37.669Z,12.14
2022-11-10T15:13:28.970Z,12.08
2022-11-10T15:16:26.348Z,12.05
2022-11-10T15:19:22.253Z,12.03
2022-11-10T15:22:12.951Z,12.01
2022-11-10T15:25:01.655Z,12.00
2022-11-10T15:28:18.470Z,11.98
2022-11-10T15:31:04.673Z,11.95
2022-11-10T15:33:51.330Z,11.93
2022-11-10T15:36:39.790Z,11.91
2022-11-10T15:39:27.265Z,11.91
2022-11-10T15:42:14.800Z,11.90
2022-11-10T15:45:00.574Z,11.87
2022-11-10T15:49:06.078Z,11.85
2022-11-10T15:52:16.926Z,11.78
2022-11-10T15:55:35.660Z,11.78
2022-11-10T15:58:38.861Z,11.79
2022-11-10T16:01:32.434Z,11.76
2022-11-10T16:04:18.214Z,11.73
2022-11-10T16:07:08.652Z,11.69
2022-11-10T16:10:05.502Z,11.67
2022-11-10T16:12:52.507Z,11.63
2022-11-10T16:15:40.476Z,11.61
2022-11-10T16:18:28.308Z,11.60
2022-11-10T16:21:17.819Z,11.60
2022-11-10T16:24:03.268Z,11.57
2022-11-10T16:26:48.545Z,11.52
2022-11-10T16:29:38.266Z,11.51
2022-11-10T16:32:24.051Z,11.50
2022-11-10T16:35:13.979Z,11.49
2022-11-10T16:38:01.540Z,11.45
2022-11-10T16:41:41.036Z,11.44
2022-11-10T16:44:31.343Z,11.43
2022-11-10T16:47:40.769Z,11.41
2022-11-10T16:50:26.750Z,11.41
2022-11-10T16:53:28.631Z,11.35
2022-11-10T16:56:20.929Z,11.34
2022-11-10T16:59:17.212Z,11.32
2022-11-10T17:02:12.896Z,11.34
2022-11-10T17:12:13.651Z,11.32
2022-11-10T17:14:58.860Z,11.35
2022-11-10T17:17:44.838Z,11.34
2022-11-10T17:20:32.623Z,11.33
2022-11-10T17:23:18.797Z,11.34
2022-11-10T17:26:04.343Z,11.30
2022-11-10T17:28:49.536Z,11.27
2022-11-10T17:31:34.583Z,11.31
2022-11-10T17:38:00.884Z,11.33
2022-11-10T17:40:45.996Z,11.35
2022-11-10T17:43:31.027Z,11.37
2022-11-10T17:46:15.988Z,11.37
2022-11-10T17:49:03.244Z,11.34
2022-11-10T17:51:48.628Z,11.34
2022-11-10T17:54:33.837Z,11.32
2022-11-10T17:57:18.862Z,11.34
2022-11-10T18:00:04.077Z,11.36
2022-11-10T18:02:54.136Z,11.37
2022-11-10T18:05:40.204Z,11.33
2022-11-10T18:08:25.732Z,11.36
2022-11-10T18:11:11.862Z,11.38
2022-11-10T18:13:57.148Z,11.43
2022-11-10T18:16:42.367Z,11.41
2022-11-10T18:19:27.342Z,11.42
2022-11-10T18:22:12.633Z,11.42
2022-11-10T18:24:57.722Z,11.43
2022-11-10T18:27:42.752Z,11.43
2022-11-10T18:30:33.743Z,11.44
2022-11-10T18:33:20.664Z,11.48
2022-11-10T18:36:06.456Z,11.49
2022-11-10T18:38:51.395Z,11.51
2022-11-10T18:41:52.645Z,11.50
2022-11-10T18:44:38.301Z,11.53
2022-11-10T18:47:23.457Z,11.58
2022-11-10T18:50:09.464Z,11.59
2022-11-10T18:52:54.527Z,11.59
2022-11-10T18:55:44.426Z,11.60
2022-11-10T18:58:30.963Z,11.60
2022-11-10T19:01:16.459Z,11.61
2022-11-10T19:04:01.985Z,11.59
2022-11-10T19:06:47.168Z,11.60
2022-11-10T19:09:33.034Z,11.62
2022-11-10T19:12:20.366Z,11.65
2022-11-10T19:15:08.772Z,11.66
2022-11-10T19:17:54.025Z,11.61
2022-11-10T19:20:39.011Z,11.61
2022-11-10T19:23:24.616Z,11.64
2022-11-10T19:26:17.926Z,11.64
2022-11-10T19:29:06.282Z,11.66
2022-11-10T19:31:51.498Z,11.66
2022-11-10T19:34:36.670Z,11.67
2022-11-10T19:37:21.991Z,11.68
2022-11-10T19:40:07.331Z,11.72
2022-11-10T20:34:46.881Z,11.61
2022-11-10T22:46:48.612Z,11.05
2022-11-10T23:05:44.135Z,10.89
2022-11-10T23:08:44.588Z,10.83
2022-11-10T23:15:55.369Z,10.80
2022-11-10T23:18:58.873Z,10.77
2022-11-10T23:21:34.204Z,10.72
2022-11-10T23:24:26.825Z,10.67
2022-11-10T23:52:44.191Z,10.30
